FindLaw California> JudicialOpinions and Case Law> Slip Opinions> Jan 2007

Sign up for FREE California Case Law Newsletters


Search Title or Docket Number:



Slip Opinions Available on FindLaw

[ Supreme | 1st | 2nd | 3rd | 4th | 5th | 6th ]


LATEST CALIFORNIA CASE LAW

POSTED DATE CASE NAME - FILED DATE
Jan 31 2007 Roehl v. Ritchie 1/31/07 CA4/3 G036999.PDF - G036999.DOC
Jan 31 2007 Tamburina v. Combined Ins. 1/31/07 CA3 C051148.PDF - C051148.DOC
Jan 31 2007 Sacramento Police Officers Assn. v. City of Sacramento 1/31/07 CA3 C042493A.PDF - C042493A.DOC
Jan 31 2007 Concerned McCloud Citizens v. McCloud Community Services Dist. 1/2/07 CA C050811.PDF - C050811.DOC
Jan 31 2007 Overaa Construction v. CalOSHA Appeals Bd. 1/31/07 CA3 C051245.PDF - C051245.DOC
Jan 31 2007 Jones v. Catholic Heathcare West 1/31/07 CA3 C052039.PDF - C052039.DOC
Jan 31 2007 McAllister v. County of Monterey 1/31/07 CA6 H028813.PDF - H028813.DOC
Jan 31 2007 Berry v. Am. Ex. Publishing 1/31/07 CA4/3 G036848.PDF - G036848.DOC
Jan 31 2007 P. v. Flores 1/31/07 CA4/1 D047249.PDF - D047249.DOC

CALIFORNIA SUPREME COURT

POSTED DATE CASE NAME - FILED DATE
Jan 29 2007 P. v. Calhoun 1/29/07 SC S129896.PDF - S129896.DOC
Jan 25 2007 Pioneer Electronics v. Super. Ct. 1/25/07 SC S133794.PDF - S133794.DOC
Jan 25 2007 P. v. Leon 1/25/07 SC S137137.PDF - S137137.DOC
Jan 11 2007 Cacho v. Boudreau 1/11/07 SC S133378.PDF - S133378.DOC

FIRST APPELLATE DISTRICT

POSTED DATE CASE NAME - FILED DATE
Jan 29 2007 Samples v. Brown 1/29/07 CA1/2 A112343M.PDF - A112343M.DOC
Jan 24 2007 Ross v. BART 1/24/07 CA1/1 A110543.PDF - A110543.DOC
Jan 23 2007 P. v. Bufford 1/22/07 CA1/3 A108741M.PDF - A108741M.DOC
Jan 22 2007 SCIF v. WCAB 1/5/07 CA1/1 A114505.PDF - A114505.DOC
Jan 18 2007 P. v. Thomas 1/18/07 CA1/5 A111109.PDF - A111109.DOC
Jan 17 2007 Nestle v. WCAB 1/5/07 CA1/2 A114506.PDF - A114506.DOC
Jan 17 2007 In re Miller 1/17/07 CA1/3 A114585M.PDF - A114585M.DOC
Jan 16 2007 In re M.V. 12/14/06 CA1/2 A112525.PDF - A112525.DOC
Jan 16 2007 Breslin v. San Francisco 1/16/07 CA1/4 A111455.PDF - A111455.DOC
Jan 16 2007 Bettencourt v. San Francisco 1/16/07 CA1/4 A112880.PDF - A112880.DOC
Jan 12 2007 P. v. Bufford 1/12/07 CA1/3 A108741.PDF - A108741.DOC
Jan 11 2007 Zembsch v. Super. Ct. 1/11/07 CA1/5 A114157M.PDF - A114157M.DOC
Jan 11 2007 Samples v. Brown 1/11/07 CA1/2 A112343.PDF - A112343.DOC

SECOND APPELLATE DISTRICT

POSTED DATE CASE NAME - FILED DATE
Jan 30 2007 P. v. McEwan 1/30/07 CA2/5 B193724.PDF - B193724.DOC
Jan 30 2007 Knapp v. Palisades Charter High School 1/30/07 CA2/7 B185996M.PDF - B185996M.DOC
Jan 29 2007 Bostick v. Flex Equipment 1/29/07 CA2/3 B171567.PDF - B171567.DOC
Jan 29 2007 ACS Systems v. St. Paul Fire & Marine Ins. 1/29/07 CA2/3 B181837.PDF - B181837.DOC
Jan 29 2007 Weiss v. Washington Mutual 1/29/07 CA2/1 B187834.PDF - B187834.DOC
Jan 26 2007 Dutra v. Eagleson 1/26/07 CA2/8 B183033M.PDF - B183033M.DOC
Jan 26 2007 Perez v. Roe 1/26/07 CA2/8 B182814M.PDF - B182814M.DOC
Jan 26 2007 Capital Research & Management Co. v. Brown 1/26/07 CA2/1 B189249.PDF - B189249.DOC
Jan 25 2007 First American Title v. Super. Ct. 1/25/07 CA2/3 B194004.PDF - B194004.DOC
Jan 25 2007 State of Cal. v. Underwriters etc. 1/25/07 CA2/2 E037627N.PDF - E037627N.DOC
Jan 25 2007 Temple City etc. v. Bayside Drive 1/25/07 CA2/1 B189736.PDF - B189736.DOC
Jan 23 2007 Pugliese v. Super. Ct. 1/23/07 CA2/2 B193835.PDF - B193835.DOC
Jan 23 2007 Cal. Commerce Casino v. Schwarzenegger 1/23/07 CA2/3 B188220.PDF - B188220.DOC
Jan 23 2007 Stone v. Center Trust Retail etc. 1/23/07 CA2/8 B181180.PDF - B181180.DOC
Jan 23 2007 P. v. Coleman 1/23/07 CA2/2 B186264.PDF - B186264.DOC
Jan 23 2007 Said v. Jegan 1/23/07 CA2/8 B182232.PDF - B182232.DOC
Jan 22 2007 Castillo v. Barrera 1/22/07 CA2/5 B188263.PDF - B188263.DOC
Jan 18 2007 Van Slyke v. Gibson 1/18/07 CA2/6 B185339.PDF - B185339.DOC
Jan 18 2007 Castillo v. Express Escrow 1/18/07 CA2/6 B186306.PDF - B186306.DOC
Jan 17 2007 In re Kobe A. 1/17/07 CA2/4 B190595.PDF - B190595.DOC
Jan 16 2007 City National v. Franchise Tax Bd. 1/16/07 CA2/4 B189240.PDF - B189240.DOC
Jan 16 2007 Smith v. WCAB 1/16/07 CA2/6 B190054.PDF - B190054.DOC
Jan 16 2007 Medeiros v. Sup. Ct. 1/16/07 CA2/7 B193042.PDF - B193042.DOC
Jan 16 2007 Estate of Burden 1/16/07 CA2/6 B185726.PDF - B185726.DOC
Jan 16 2007 Alvarado v. Sup. Ct. 1/16/07 CA2/7 B194139.PDF - B194139.DOC
Jan 11 2007 Kurwa v. Harrington, Foxx 1/11/07 CA2/5 B187363.PDF - B187363.DOC
Jan 11 2007 Rappaport-Scott v. Interinsurance 1/11/07 CA2/3 B184917.PDF - B184917.DOC
Jan 10 2007 Knapp v. Palisades Charter High School 1/10/07 CA2/7 B185996A.PDF - B185996A.DOC
Jan 10 2007 Ramos v. Super. Ct. 1/10/07 CA2/7 B192395.PDF - B192395.DOC
Jan 09 2007 London Market Insurers v. Sup. Ct. 1/9/07 CA2/4 B189000.PDF - B189000.DOC
Jan 08 2007 Wagner v. Columbia Pictures 1/8/07 CA2/7 B184523.PDF - B184523.DOC
Jan 08 2007 In re James F. 1/8/07 CA2/7 B188863.PDF - B188863.DOC
Jan 08 2007 August Entertainment v. Phila. Indemnity etc. 1/8/07 CA2/1 B184276.PDF - B184276.DOC
Jan 04 2007 Port Hueneme v. Oxnard Harbor etc. 1/4/07 CA2/6 B185725A.PDF - B185725A.DOC
Jan 03 2007 Steinert v. City of Covina 10/11/06 CA2/7 B187940.PDF - B187940.DOC

THIRD APPELLATE DISTRICT

POSTED DATE CASE NAME - FILED DATE
Jan 31 2007 Tamburina v. Combined Ins. 1/31/07 CA3 C051148.PDF - C051148.DOC
Jan 31 2007 Sacramento Police Officers Assn. v. City of Sacramento 1/31/07 CA3 C042493A.PDF - C042493A.DOC
Jan 31 2007 Overaa Construction v. CalOSHA Appeals Bd. 1/31/07 CA3 C051245.PDF - C051245.DOC
Jan 31 2007 Jones v. Catholic Heathcare West 1/31/07 CA3 C052039.PDF - C052039.DOC
Jan 26 2007 Gilbert v. Sykes 1/26/07 CA3 C050766.PDF - C050766.DOC
Jan 23 2007 Savient Pharmaceuticals v. Dept. Health Services 1/23/07 CA3 C050171.PDF - C050171.DOC
Jan 23 2007 Vergos v. McNeal 1/23/07 CA3 C051469.PDF - C051469.DOC
Jan 17 2007 Cal. Farm Bureau v. State Water etc. Bd. 1/17/07 CA3 C050289.PDF - C050289.DOC
Jan 11 2007 P. v. Hernandez 12/18/06 CA3 C051224.PDF - C051224.DOC
Jan 11 2007 Nicole K. v. Super. Ct. 1/11/07 CA3 C053987.PDF - C053987.DOC
Jan 10 2007 Connerly v. Schwarzenegger 1/10/07 CA3 C050204.PDF - C050204.DOC
Jan 08 2007 P. v. Wilmshurst 1/8/07 CA3 C050103.PDF - C050103.DOC
Jan 04 2007 Patricia Adkins Ins. v. State Farm 1/4/07 CA3 C050591.PDF - C050591.DOC
Jan 04 2007 Calvert v. County of Yuba 1/3/07 CA3 C047857M.PDF - C047857M.DOC
Jan 03 2007 Oroville Hospital v. Dept. Health Services 12/12/06 CA3 C049827.PDF - C049827.DOC
Jan 02 2007 Kennedy v. Super. Ct. 1/2/07 CA3 C052243M.PDF - C052243M.DOC
Jan 02 2007 Barnett v. Super. Ct. 1/2/07 CA3 C051311M.PDF - C051311M.DOC
Dec 29 2006 P. v. Gonzalez 12/29/06 CA3 C045935A.PDF - C045935A.DOC

FOURTH APPELLATE DISTRICT

POSTED DATE CASE NAME - FILED DATE
Jan 31 2007 Roehl v. Ritchie 1/31/07 CA4/3 G036999.PDF - G036999.DOC
Jan 31 2007 Berry v. Am. Ex. Publishing 1/31/07 CA4/3 G036848.PDF - G036848.DOC
Jan 31 2007 P. v. Flores 1/31/07 CA4/1 D047249.PDF - D047249.DOC
Jan 29 2007 Kunysz v. Sandler 1/29/07 CA4/3 G037226A.PDF - G037226A.DOC
Jan 26 2007 Williams v. Super. Ct. 1/26/07 CA4/1 D048962.PDF - D048962.DOC
Jan 26 2007 Laliberte v. Pacific Mercantile Bank 1/25/07 CA4/3 G036235.PDF - G036235.DOC
Jan 25 2007 San Diego Gas & Elec. v. Super. Ct. 1/25/07 CA4/1 D049298.PDF - D049298.DOC
Jan 24 2007 Ambriz v. Kelegian 1/24/07 CA4/1 D046453.PDF - D046453.DOC
Jan 24 2007 Manderville v. PCG&S Group 1/24/07 CA4/1 D047285.PDF - D047285.DOC
Jan 23 2007 Kemp Bros. v. Titan Elec. 1/23/07 CA4/3 G035607.PDF - G035607.DOC
Jan 23 2007 Marr. of Ackerman 1/23/07 CA4/3 G034259M.PDF - G034259M.DOC
Jan 12 2007 P. v. Costello 1/12/07 CA4/2 E037674.PDF - E037674.DOC
Jan 12 2007 State of Cal. v. Underwriters etc. 1/12/07 CA4/2 E037627M.PDF - E037627M.DOC
Jan 12 2007 Black Hills Inv. v. Albertson's 1/12/07 CA4/1 D047894.PDF - D047894.DOC
Jan 11 2007 In re Player 1/11/07 CA4/1 D047042.PDF - D047042.DOC
Jan 10 2007 Glatman v. Valverde 12/12/06 CA4/3 G036880.PDF - G036880.DOC
Jan 09 2007 Schatz v. Allen Matkins Leck Gamble & Mallory 1/9/07 CA4/1 D047347.PDF - D047347.DOC
Jan 04 2007 Amber K. v. Super. Ct. 12/13/06 CA4/2 E041287.PDF - E041287.DOC
Jan 04 2007 P. v. Miller 1/4/07 CA4/3 G033762A.PDF - G033762A.DOC
Jan 04 2007 Jeld-Wen v. Super. Ct. 1/4/07 CA4/1 D048782.PDF - D048782.DOC
Jan 04 2007 P. v. Super. Ct. 1/4/07 CA4/1 D049026.PDF - D049026.DOC
Jan 03 2007 Cruz v. Fagor America 1/3/07 CA4/1 D048064.PDF - D048064.DOC

FIFTH APPELLATE DISTRICT

POSTED DATE CASE NAME - FILED DATE
Jan 30 2007 In re Malcolm M. 1/30/07 CA5 F049687.PDF - F049687.DOC
Jan 17 2007 Sofranek v. Merced Cty. 1/17/07 CA5 F049379.PDF - F049379.DOC
Jan 17 2007 In re Sodersten 1/17/07 CA5 F047425.PDF - F047425.DOC
Jan 12 2007 P. v. Salinas 1/12/07 CA5 F049017.PDF - F049017.DOC
Jan 12 2007 Ochoa v. Fordel, Inc. 1/12/07 CA5 F049231.PDF - F049231.DOC
Jan 10 2007 D.H. Williams Construction v. Clovis Unified 1/10/07 CA5 F049526.PDF - F049526.DOC
Jan 09 2007 P. v. Eastman 1/9/07 CA5 F049395.PDF - F049395.DOC
Jan 09 2007 Neilson v. City of California City 1/9/07 CA5 F049143.PDF - F049143.DOC
Jan 05 2007 Wagner Farms v. Modesto Irrigation Dist. 1/5/07 CA5 F049966M.PDF - F049966M.DOC
Jan 03 2007 P. v. Popular 12/13/06 CA5 F049564.PDF - F049564.DOC
Jan 02 2007 North Kern Water v. Kern Delta Water 1/2/07 CA5 HREF="http://appellatecases.courtinfo.ca.gov/search/searchResults.cfm?dist=5&search=number&useSession=0&query_caseNumber=F047706"> src="/images/infosym.gif" width="14" height="14" border="0" alt="Detailed case information"> F047706.PDF - F047706.DOC

SIXTH APPELLATE DISTRICT

POSTED DATE CASE NAME - FILED DATE
Jan 31 2007 McAllister v. County of Monterey 1/31/07 CA6 H028813.PDF - H028813.DOC
Jan 22 2007 P. v. Nguyen 1/22/07 CA6 H028798A.PDF - H028798A.DOC
Jan 18 2007 Shisler v. Sanfer Sports Cars 12/20/06 CA6 H029791.PDF - H029791.DOC
Jan 18 2007 P. v. Lopez 12/21/06 CA6 H029248.PDF - H029248.DOC
Jan 12 2007 Spielbauer v. Santa Clara Co. 1/12/07 CA6 H029345.PDF - H029345.DOC

FindLaw Career Center

    Search for Law Jobs:

      Post a Job  |  View More Jobs
Ads by FindLaw